Overview Statistics Trail Chart Weather Telemetry Raw packets
 

This is the latest recevied weather packets stored in our database for station/object SV9TNF-55. If no packets are shown the sender has not sent any weather packets the latest 10 day(s).

<< 33 34 35 36 37 38 39 >>
Time Temp. Humidity Pressure Rain* Wind** Luminosity Snow
1788160628 23.33° C 36% 1015.7 hPa 0 mm 1.34 m/s, 337° - -
1788160027 23.33° C 35% 1015.8 hPa 0 mm 0.89 m/s, 22° - -
1788159426 22.78° C 35% 1015.9 hPa 0 mm 1.34 m/s, 337° - -
1788158830 22.78° C 33% 1015.7 hPa 0 mm 1.34 m/s, 337° - -
1788158226 22.78° C 32% 1015.5 hPa 0 mm 0.89 m/s, 22° - -
1788157626 21.67° C 35% 1015.5 hPa 0 mm 0.89 m/s, 337° - -
1788157026 21.67° C 34% 1015.6 hPa 0 mm 0.45 m/s, 337° - -
1788156426 22.22° C 29% 1015.5 hPa 0 mm 0.45 m/s, 292° - -
1788155826 21.67° C 32% 1015.5 hPa 0 mm 0.45 m/s, 292° - -
1788155226 21.67° C 29% 1015.3 hPa 0 mm 1.34 m/s, 270° - -
1788154626 21.11° C 32% 1015.2 hPa 0 mm 0.89 m/s, 292° - -
1788154026 21.11° C 37% 1015.3 hPa 0 mm 0.45 m/s, 315° - -
1788153425 21.11° C 44% 1015.2 hPa 0 mm 1.34 m/s, 292° - -
1788152826 20.56° C 48% 1015.2 hPa 0 mm 1.79 m/s, 292° - -
1788152240 20.56° C 55% 1015.3 hPa 0 mm 0.89 m/s, 270° - -
1788151625 20.56° C 59% 1015.2 hPa 0 mm 1.34 m/s, 270° - -
1788151025 20.56° C 59% 1015.2 hPa 0 mm 1.34 m/s, 270° - -
1788150425 20.56° C 59% 1015.2 hPa 0 mm 1.79 m/s, 270° - -
1788149825 20.56° C 59% 1015 hPa 0 mm 2.24 m/s, 270° - -
1788149225 20° C 66% 1015 hPa 0 mm 1.34 m/s, 292° - -
1788148625 20° C 66% 1015 hPa 0 mm 1.34 m/s, 292° - -
1788148026 20° C 66% 1015 hPa 0 mm 1.34 m/s, 292° - -
1788147425 20° C 66% 1015 hPa 0 mm 1.34 m/s, 292° - -
1788146825 20° C 66% 1015 hPa 0 mm 1.34 m/s, 292° - -
1788146225 20° C 66% 1015 hPa 0 mm 1.34 m/s, 292° - -

* Rain latest hour (hover to see other rain measurements)
** Current wind speed in m/s (hover to see current wind gust speed)